Time;durP1;ratioP1;P1;durP2;ratioP2;P2;SDS_P1;SDS_P2;PMS_P1;PMS_P2;Temp;Humidity;BMP_temperature;BMP_pressure;BME280_temperature;BME280_humidity;BME280_pressure;Samples;Min_cycle;Max_cycle;Signal;HPM_P1;HPM_P2
2022/09/06 00:00:50;;;;;;;6.75;3.97;;;;;;;20.43;92.62;101548.97;4968646;28;20041;-70
2022/09/06 00:03:15;;;;;;;5.88;4.38;;;;;;;20.39;92.40;101550.25;4949549;28;20034;-69
2022/09/06 00:05:42;;;;;;;6.80;3.70;;;;;;;20.48;91.20;101551.25;4968772;28;20050;-70
2022/09/06 00:08:08;;;;;;;11.65;4.55;;;;;;;20.38;92.87;101550.38;4967731;28;20127;-69
2022/09/06 00:10:33;;;;;;;7.80;3.85;;;;;;;20.49;91.53;101552.13;4968835;28;20030;-70
2022/09/06 00:13:02;;;;;;;9.68;4.10;;;;;;;20.52;91.42;101535.56;4968868;28;20050;-71
2022/09/06 00:15:27;;;;;;;7.18;3.65;;;;;;;20.39;93.82;101539.41;4968855;28;20049;-71
2022/09/06 00:17:53;;;;;;;6.30;4.47;;;;;;;20.06;95.91;101529.84;4968399;28;20042;-70
2022/09/06 00:20:18;;;;;;;8.25;4.15;;;;;;;20.25;93.17;101534.44;4968754;28;20050;-70
2022/09/06 00:22:43;;;;;;;8.48;4.28;;;;;;;20.35;92.07;101535.28;4969548;28;20038;-71
2022/09/06 00:25:09;;;;;;;11.57;5.25;;;;;;;20.37;92.55;101533.25;4969557;28;20037;-71
2022/09/06 00:27:35;;;;;;;7.80;4.30;;;;;;;20.25;93.63;101526.31;4960388;28;20046;-70
2022/09/06 00:30:00;;;;;;;6.25;3.90;;;;;;;20.13;93.94;101524.72;4969545;28;20050;-70
2022/09/06 00:32:26;;;;;;;4.95;3.22;;;;;;;20.04;95.14;101523.75;4969040;28;20049;-70
2022/09/06 00:34:51;;;;;;;9.27;4.05;;;;;;;20.22;93.84;101523.00;4966010;28;20693;-71
2022/09/06 00:37:17;;;;;;;5.32;4.10;;;;;;;20.34;92.96;101530.88;4967859;28;20145;-71
2022/09/06 00:39:42;;;;;;;7.05;3.60;;;;;;;20.26;93.64;101524.44;4952315;28;20042;-71
2022/09/06 00:42:10;;;;;;;7.60;4.00;;;;;;;20.17;95.34;101523.44;4952064;28;20729;-70
2022/09/06 00:44:36;;;;;;;5.47;3.88;;;;;;;20.18;95.64;101522.44;4952159;28;20153;-71
2022/09/06 00:47:02;;;;;;;5.88;3.70;;;;;;;20.22;95.04;101520.31;4969310;28;20961;-70
2022/09/06 00:49:33;;;;;;;7.55;4.18;;;;;;;20.23;95.22;101517.47;4970109;28;20039;-71
2022/09/06 00:52:06;;;;;;;7.82;3.72;;;;;;;20.13;98.49;101517.47;4969774;28;20034;-71
2022/09/06 00:54:32;;;;;;;8.48;4.70;;;;;;;20.17;97.11;101507.19;4956562;28;20526;-70
2022/09/06 00:56:58;;;;;;;7.28;4.57;;;;;;;20.17;97.44;101505.34;4969165;28;20034;-70
2022/09/06 00:59:26;;;;;;;7.95;4.50;;;;;;;20.22;97.15;101507.63;4968768;28;20038;-70
2022/09/06 01:01:51;;;;;;;7.93;4.03;;;;;;;20.24;97.00;101508.34;4969490;28;20038;-70
2022/09/06 01:04:17;;;;;;;6.95;4.70;;;;;;;20.20;98.52;101516.91;4970504;28;20909;-70
2022/09/06 01:06:57;;;;;;;7.38;4.28;;;;;;;20.39;96.97;101509.63;4974315;28;20165;-69
2022/09/06 01:09:48;;;;;;;9.60;4.80;;;;;;;20.26;99.70;101517.16;4974035;28;20149;-70
2022/09/06 01:12:26;;;;;;;8.88;4.15;;;;;;;20.25;99.50;101520.03;4974453;28;20081;-70
2022/09/06 01:15:08;;;;;;;7.95;4.68;;;;;;;20.27;100.00;101527.00;4972052;28;20122;-70
2022/09/06 01:17:51;;;;;;;8.75;4.50;;;;;;;20.34;100.00;101533.56;4972974;28;20428;-70
2022/09/06 01:20:22;;;;;;;8.13;4.00;;;;;;;20.24;100.00;101531.88;4961101;28;20388;-70
2022/09/06 01:23:12;;;;;;;8.60;5.03;;;;;;;20.01;100.00;101540.25;4973836;28;20077;-70
2022/09/06 01:26:04;;;;;;;7.70;4.75;;;;;;;19.82;100.00;101543.78;4973288;28;20069;-70
2022/09/06 01:28:42;;;;;;;11.13;4.28;;;;;;;19.91;100.00;101542.94;4972197;28;20038;-70
2022/09/06 01:31:26;;;;;;;7.75;5.35;;;;;;;19.83;100.00;101534.69;4971245;28;20042;-70
2022/09/06 01:34:06;;;;;;;8.48;5.63;;;;;;;19.80;100.00;101539.53;4958294;28;20077;-70
2022/09/06 01:36:55;;;;;;;8.07;5.68;;;;;;;19.84;100.00;101536.41;4971961;28;20050;-70
2022/09/06 01:39:28;;;;;;;9.57;6.05;;;;;;;19.81;100.00;101538.53;4971886;28;20050;-71
2022/09/06 01:41:57;;;;;;;9.73;5.90;;;;;;;19.72;100.00;101542.06;4970979;28;20681;-70
2022/09/06 01:44:27;;;;;;;9.55;5.85;;;;;;;19.66;100.00;101587.63;4970594;28;20117;-70
2022/09/06 01:47:14;;;;;;;7.93;5.63;;;;;;;19.43;100.00;101605.06;4971331;28;20046;-70
2022/09/06 01:49:51;;;;;;;9.05;4.40;;;;;;;19.32;100.00;101583.50;4970836;28;20043;-69
2022/09/06 01:52:49;;;;;;;6.97;3.75;;;;;;;19.39;100.00;101552.22;4969882;28;20034;-70
2022/09/06 01:55:24;;;;;;;7.25;3.72;;;;;;;19.42;100.00;101565.44;4969569;28;20077;-70
2022/09/06 01:58:10;;;;;;;5.15;3.92;;;;;;;19.42;100.00;101578.97;4969952;28;20362;-70
2022/09/06 02:01:02;;;;;;;7.15;4.13;;;;;;;19.34;100.00;101578.81;4969842;28;20046;-69
2022/09/06 02:04:09;;;;;;;6.07;4.50;;;;;;;19.37;100.00;101560.44;4970059;28;20170;-70
2022/09/06 02:06:41;;;;;;;8.63;4.20;;;;;;;19.41;100.00;101571.84;4893736;29;20099;-70
2022/09/06 02:09:18;;;;;;;9.57;4.30;;;;;;;19.22;100.00;101542.88;4908663;29;20051;-70
2022/09/06 02:11:59;;;;;;;4.35;3.95;;;;;;;19.38;100.00;101556.78;4892415;29;20418;-68
2022/09/06 02:14:42;;;;;;;7.10;4.57;;;;;;;19.44;100.00;101554.50;4907711;29;20103;-70
2022/09/06 02:17:12;;;;;;;11.57;4.80;;;;;;;19.29;100.00;101552.19;4906755;29;20071;-69
2022/09/06 02:19:55;;;;;;;6.25;3.92;;;;;;;19.32;100.00;101545.63;4908001;29;20051;-69
2022/09/06 02:22:24;;;;;;;7.38;4.78;;;;;;;19.25;100.00;101530.94;4908386;29;20118;-70
2022/09/06 02:24:52;;;;;;;9.45;4.40;;;;;;;19.17;100.00;101525.34;4908788;29;20091;-69
2022/09/06 02:27:18;;;;;;;8.82;5.00;;;;;;;19.24;100.00;101513.00;4908578;29;20964;-70
2022/09/06 02:29:43;;;;;;;9.23;4.85;;;;;;;19.19;100.00;101512.56;4909313;29;20052;-70
2022/09/06 02:32:19;;;;;;;8.57;4.63;;;;;;;19.22;100.00;101521.25;4909877;29;20051;-70
2022/09/06 02:34:45;;;;;;;9.65;5.57;;;;;;;19.18;100.00;101524.34;4908551;29;20170;-68
2022/09/06 02:37:12;;;;;;;7.10;5.20;;;;;;;19.14;100.00;101516.53;4909204;29;20427;-70
2022/09/06 02:39:38;;;;;;;7.22;4.55;;;;;;;19.10;100.00;101504.28;4914015;28;20195;-70
2022/09/06 02:42:05;;;;;;;5.25;4.65;;;;;;;18.93;100.00;101496.81;4968408;28;20038;-69
2022/09/06 02:44:31;;;;;;;6.95;5.10;;;;;;;18.88;100.00;101499.91;4951339;28;20100;-69
2022/09/06 02:46:57;;;;;;;9.43;4.72;;;;;;;18.83;100.00;101491.38;4968134;28;21694;-69
2022/09/06 02:49:22;;;;;;;11.98;5.15;;;;;;;18.76;100.00;101490.16;4968217;28;20046;-70
2022/09/06 02:51:48;;;;;;;10.63;5.78;;;;;;;18.75;100.00;101479.50;4968736;28;20054;-69
2022/09/06 02:54:13;;;;;;;9.48;5.97;;;;;;;18.76;100.00;101470.41;4950711;28;20034;-70
2022/09/06 02:56:39;;;;;;;6.95;5.10;;;;;;;18.74;100.00;101458.88;4967608;28;20064;-69
2022/09/06 02:59:04;;;;;;;9.05;5.18;;;;;;;18.80;100.00;101439.44;4967908;28;20108;-69
2022/09/06 03:01:31;;;;;;;7.80;6.10;;;;;;;18.90;100.00;101429.50;4968081;28;20190;-70
2022/09/06 03:03:56;;;;;;;10.93;5.78;;;;;;;18.76;100.00;101411.81;4968359;28;21032;-69
2022/09/06 03:06:23;;;;;;;8.95;6.65;;;;;;;18.67;100.00;101396.38;4968348;28;20440;-69
2022/09/06 03:08:48;;;;;;;14.07;6.40;;;;;;;18.58;100.00;101384.56;4952469;28;20046;-69
2022/09/06 03:11:14;;;;;;;8.85;7.22;;;;;;;18.42;100.00;101375.22;4969508;28;20101;-69
2022/09/06 03:13:39;;;;;;;10.38;7.40;;;;;;;18.71;100.00;101367.28;4970548;28;20042;-69
2022/09/06 03:16:05;;;;;;;10.90;6.15;;;;;;;18.59;100.00;101347.59;4968840;28;20045;-69
2022/09/06 03:18:31;;;;;;;9.35;6.38;;;;;;;18.60;100.00;101346.59;4970010;28;20042;-69
2022/09/06 03:20:57;;;;;;;9.15;5.57;;;;;;;18.65;100.00;101338.94;4970030;28;20076;-69
2022/09/06 03:23:26;;;;;;;8.25;5.60;;;;;;;18.66;100.00;101339.78;4968940;28;20038;-69
2022/09/06 03:25:51;;;;;;;9.05;5.40;;;;;;;18.75;100.00;101334.44;4970263;28;20042;-70
2022/09/06 03:28:17;;;;;;;11.32;5.40;;;;;;;18.77;100.00;101337.00;4969536;28;20073;-69
2022/09/06 03:30:44;;;;;;;7.82;5.05;;;;;;;18.86;100.00;101341.59;4969810;28;20034;-69
2022/09/06 03:33:10;;;;;;;10.68;4.68;;;;;;;18.74;100.00;101345.41;4952121;28;20062;-70
2022/09/06 03:35:36;;;;;;;6.95;4.80;;;;;;;18.68;100.00;101344.13;4969808;28;20140;-69
2022/09/06 03:38:01;;;;;;;7.45;4.30;;;;;;;18.66;100.00;101342.50;4951397;28;20078;-69
2022/09/06 03:40:26;;;;;;;8.38;4.75;;;;;;;18.66;100.00;101356.84;4968488;28;20027;-70
2022/09/06 03:42:52;;;;;;;10.82;5.25;;;;;;;18.61;100.00;101359.97;4968783;28;20031;-69
2022/09/06 03:45:17;;;;;;;9.02;5.70;;;;;;;18.55;100.00;101379.41;4968535;28;20039;-70
2022/09/06 03:47:43;;;;;;;12.27;7.22;;;;;;;18.50;100.00;101373.56;4969431;28;20108;-70
2022/09/06 03:50:09;;;;;;;10.77;8.00;;;;;;;18.49;100.00;101382.66;4968387;28;20038;-70
2022/09/06 03:52:34;;;;;;;13.07;8.18;;;;;;;18.50;100.00;101380.81;4969413;28;20531;-70
2022/09/06 03:55:00;;;;;;;14.77;9.57;;;;;;;18.51;100.00;101385.22;4969044;28;20817;-69
2022/09/06 03:57:25;;;;;;;13.93;10.10;;;;;;;18.54;100.00;101402.03;4968492;28;20861;-70
2022/09/06 03:59:51;;;;;;;18.65;9.57;;;;;;;18.50;100.00;101414.09;4951655;28;20057;-70
2022/09/06 04:02:16;;;;;;;13.73;7.68;;;;;;;18.59;100.00;101420.53;4951086;28;20039;-70
2022/09/06 04:04:42;;;;;;;12.98;8.07;;;;;;;18.64;100.00;101423.69;4969047;28;20055;-69
2022/09/06 04:07:07;;;;;;;10.93;7.38;;;;;;;18.80;100.00;101418.66;4967781;28;20039;-70
2022/09/06 04:09:33;;;;;;;9.52;7.10;;;;;;;18.59;100.00;101432.19;4951599;28;20042;-70
2022/09/06 04:11:59;;;;;;;12.32;7.00;;;;;;;18.72;100.00;101417.63;4968755;28;20100;-70
2022/09/06 04:14:24;;;;;;;8.65;5.72;;;;;;;18.59;100.00;101415.97;4968345;28;20997;-70
2022/09/06 04:16:50;;;;;;;7.72;5.32;;;;;;;18.58;100.00;101414.28;4968349;28;20027;-70
2022/09/06 04:19:15;;;;;;;12.68;6.05;;;;;;;18.54;100.00;101411.97;4950554;28;20057;-70
2022/09/06 04:21:41;;;;;;;10.30;5.82;;;;;;;18.49;100.00;101404.28;4968281;28;20034;-70
2022/09/06 04:24:06;;;;;;;5.93;5.15;;;;;;;18.59;100.00;101412.44;4967250;28;20520;-70
2022/09/06 04:26:32;;;;;;;10.13;5.38;;;;;;;18.56;100.00;101424.34;4950722;28;20046;-70
2022/09/06 04:28:58;;;;;;;7.00;5.07;;;;;;;18.51;100.00;101421.19;4967863;28;20042;-70
2022/09/06 04:31:23;;;;;;;13.20;6.95;;;;;;;18.60;100.00;101424.94;4968691;28;20043;-69
2022/09/06 04:33:48;;;;;;;7.70;6.38;;;;;;;18.61;100.00;101419.38;4968655;28;20039;-69
2022/09/06 04:36:14;;;;;;;7.60;5.55;;;;;;;18.59;100.00;101418.69;4967884;28;20088;-70
2022/09/06 04:38:42;;;;;;;10.00;6.00;;;;;;;18.59;100.00;101415.13;4949564;28;20038;-70
2022/09/06 04:41:10;;;;;;;8.90;6.53;;;;;;;18.62;100.00;101420.25;4971226;28;20826;-70
2022/09/06 04:43:36;;;;;;;16.98;8.18;;;;;;;18.61;100.00;101419.38;4971393;28;20046;-69
2022/09/06 04:46:13;;;;;;;11.00;6.32;;;;;;;18.55;100.00;101419.09;4971337;28;20349;-70
2022/09/06 04:48:38;;;;;;;11.82;6.45;;;;;;;18.54;100.00;101426.34;4971160;28;20053;-69
2022/09/06 04:51:04;;;;;;;12.07;6.05;;;;;;;18.58;100.00;101426.94;4970998;28;20050;-70
2022/09/06 04:53:29;;;;;;;11.77;6.30;;;;;;;18.42;100.00;101434.66;4971666;28;20046;-70
2022/09/06 04:55:58;;;;;;;10.95;6.30;;;;;;;18.23;100.00;101432.69;4970762;28;20045;-70
2022/09/06 04:58:24;;;;;;;8.85;6.85;;;;;;;18.48;100.00;101423.34;4953082;28;20138;-70
2022/09/06 05:00:50;;;;;;;9.13;6.25;;;;;;;18.57;100.00;101422.50;4970629;28;20045;-70
2022/09/06 05:03:16;;;;;;;8.82;6.65;;;;;;;18.45;100.00;101432.53;4971273;28;20731;-70
2022/09/06 05:05:41;;;;;;;9.80;7.20;;;;;;;18.55;100.00;101429.88;4971023;28;20042;-69
2022/09/06 05:08:07;;;;;;;9.27;6.43;;;;;;;18.52;100.00;101420.19;4970904;28;20045;-70
2022/09/06 05:10:32;;;;;;;10.27;6.78;;;;;;;18.42;100.00;101440.91;4972190;28;20416;-69
2022/09/06 05:12:58;;;;;;;9.30;6.88;;;;;;;18.35;100.00;101432.47;4972297;28;20038;-70
2022/09/06 05:15:23;;;;;;;8.15;6.45;;;;;;;18.27;100.00;101436.81;4971545;28;20045;-69
2022/09/06 05:17:48;;;;;;;10.60;7.28;;;;;;;18.41;100.00;101447.28;4954188;28;20038;-69
2022/09/06 05:20:14;;;;;;;13.52;7.15;;;;;;;18.28;100.00;101444.81;4971168;28;20120;-70
2022/09/06 05:22:40;;;;;;;10.63;7.07;;;;;;;18.30;100.00;101448.22;4971739;28;20038;-70
2022/09/06 05:25:07;;;;;;;10.23;7.28;;;;;;;18.49;100.00;101442.09;4953828;28;20081;-70
2022/09/06 05:27:33;;;;;;;8.85;7.15;;;;;;;18.46;100.00;101444.19;4970176;28;20128;-70
2022/09/06 05:29:58;;;;;;;10.90;8.10;;;;;;;18.58;100.00;101437.75;4968901;28;20528;-70
2022/09/06 05:32:24;;;;;;;13.02;7.95;;;;;;;18.66;100.00;101445.16;4973068;28;20472;-70
2022/09/06 05:34:49;;;;;;;10.63;8.65;;;;;;;18.70;100.00;101458.28;4973473;28;20042;-70
2022/09/06 05:37:15;;;;;;;12.35;8.00;;;;;;;18.45;100.00;101464.09;4972501;28;20042;-70
2022/09/06 05:39:40;;;;;;;14.68;9.65;;;;;;;18.43;100.00;101463.38;4972001;28;20038;-70
2022/09/06 05:42:06;;;;;;;19.05;10.00;;;;;;;18.45;100.00;101456.00;4970448;28;20042;-70
2022/09/06 05:44:36;;;;;;;15.23;9.07;;;;;;;18.57;100.00;101461.16;4953324;28;20050;-70
2022/09/06 05:47:02;;;;;;;11.82;7.70;;;;;;;18.73;100.00;101455.34;4970227;28;20057;-70
2022/09/06 05:49:31;;;;;;;10.07;7.78;;;;;;;18.91;100.00;101466.34;4970376;28;20070;-70
2022/09/06 05:51:56;;;;;;;13.80;7.70;;;;;;;19.05;100.00;101471.38;4970626;28;20830;-70
2022/09/06 05:54:22;;;;;;;10.00;7.10;;;;;;;19.21;100.00;101478.13;4970901;28;20121;-69
2022/09/06 05:56:48;;;;;;;15.30;8.23;;;;;;;19.25;100.00;101483.13;4970601;28;20137;-70
2022/09/06 05:59:13;;;;;;;13.35;7.72;;;;;;;19.29;100.00;101484.56;4970401;28;20085;-70
2022/09/06 06:01:50;;;;;;;15.73;8.50;;;;;;;19.25;100.00;101498.50;4969686;28;21153;-69
2022/09/06 06:04:17;;;;;;;10.82;8.07;;;;;;;19.39;100.00;101500.81;4968601;28;20054;-71
2022/09/06 06:06:44;;;;;;;10.75;7.95;;;;;;;19.50;100.00;101500.69;4970420;28;20743;-69
2022/09/06 06:09:10;;;;;;;11.77;8.23;;;;;;;19.51;100.00;101507.81;4969798;28;20034;-69
2022/09/06 06:11:35;;;;;;;14.82;8.43;;;;;;;19.46;100.00;101501.97;4970638;28;20870;-69
2022/09/06 06:14:02;;;;;;;14.60;7.95;;;;;;;19.58;100.00;101502.72;4970480;28;20053;-69
2022/09/06 06:16:27;;;;;;;15.63;8.23;;;;;;;19.52;100.00;101509.53;4969336;28;20134;-70
2022/09/06 06:18:53;;;;;;;17.25;8.80;;;;;;;19.49;100.00;101508.97;4951884;28;20807;-70
2022/09/06 06:21:22;;;;;;;15.13;9.02;;;;;;;19.55;100.00;101516.53;4968309;28;20043;-70
2022/09/06 06:23:58;;;;;;;11.52;8.38;;;;;;;19.61;100.00;101519.53;4968831;28;20080;-69
2022/09/06 06:26:25;;;;;;;10.98;7.85;;;;;;;19.57;100.00;101514.50;4968327;28;20049;-69
2022/09/06 06:28:50;;;;;;;13.35;8.75;;;;;;;19.69;100.00;101516.16;4969042;28;20038;-69
2022/09/06 06:31:16;;;;;;;13.50;8.98;;;;;;;19.70;100.00;101512.44;4968786;28;20038;-70
2022/09/06 06:33:43;;;;;;;11.88;8.57;;;;;;;19.77;100.00;101510.03;4968452;28;20042;-70
2022/09/06 06:36:12;;;;;;;16.25;8.25;;;;;;;19.84;100.00;101509.34;4969238;28;20038;-70
2022/09/06 06:38:39;;;;;;;17.15;10.27;;;;;;;19.77;100.00;101507.31;4969177;28;20124;-70
2022/09/06 06:41:06;;;;;;;14.25;9.68;;;;;;;19.75;100.00;101512.03;4969125;28;20030;-70
2022/09/06 06:43:35;;;;;;;12.60;9.38;;;;;;;19.87;100.00;101509.03;4968880;28;20050;-69
2022/09/06 06:46:02;;;;;;;16.35;8.90;;;;;;;20.37;100.00;101513.44;4969654;28;20046;-69
2022/09/06 06:48:28;;;;;;;13.57;9.20;;;;;;;20.86;100.00;101514.25;4969844;28;20046;-69
2022/09/06 06:50:53;;;;;;;17.10;9.75;;;;;;;21.08;100.00;101497.59;4970966;28;20140;-69
2022/09/06 06:53:19;;;;;;;11.80;9.20;;;;;;;21.17;100.00;101498.56;4969443;28;20042;-70
2022/09/06 06:55:47;;;;;;;12.60;8.73;;;;;;;21.81;100.00;101499.50;4969530;28;20038;-70
2022/09/06 06:58:13;;;;;;;15.13;8.73;;;;;;;22.08;99.64;101498.53;4967746;28;20038;-70
2022/09/06 07:00:40;;;;;;;13.45;7.70;;;;;;;22.69;91.91;101492.25;4970594;28;20040;-70
2022/09/06 07:03:05;;;;;;;12.23;7.28;;;;;;;23.44;86.16;101484.28;4970330;28;20424;-70
2022/09/06 07:05:31;;;;;;;12.23;7.70;;;;;;;23.25;87.18;101485.44;4968754;28;20037;-69
2022/09/06 07:07:56;;;;;;;9.82;7.28;;;;;;;23.29;89.67;101477.78;4948009;28;20030;-70
2022/09/06 07:10:22;;;;;;;15.32;7.65;;;;;;;24.20;84.59;101483.28;4964854;28;21060;-70
2022/09/06 07:12:47;;;;;;;10.55;7.53;;;;;;;24.10;84.30;101480.72;4961563;28;20042;-70
2022/09/06 07:15:13;;;;;;;11.85;7.47;;;;;;;23.99;83.02;101470.13;4964780;28;20126;-70
2022/09/06 07:17:38;;;;;;;12.93;8.13;;;;;;;24.07;79.84;101464.69;4950971;28;20038;-70
2022/09/06 07:20:04;;;;;;;15.38;7.90;;;;;;;24.60;79.42;101463.31;4966707;28;20037;-70
2022/09/06 07:22:29;;;;;;;10.35;7.82;;;;;;;24.49;80.03;101469.97;4967225;28;20042;-70
2022/09/06 07:24:55;;;;;;;13.07;8.07;;;;;;;24.88;76.74;101465.63;4949565;28;20049;-69
2022/09/06 07:27:20;;;;;;;10.68;8.40;;;;;;;24.95;77.07;101467.47;4967177;28;20038;-70
2022/09/06 07:29:46;;;;;;;15.30;7.70;;;;;;;24.41;76.52;101461.81;4968185;28;20070;-70
2022/09/06 07:32:11;;;;;;;11.90;8.35;;;;;;;25.19;75.10;101450.16;4967705;28;20859;-70
2022/09/06 07:34:38;;;;;;;9.45;7.75;;;;;;;24.79;76.39;101457.44;4968782;28;20042;-70
2022/09/06 07:37:04;;;;;;;12.07;7.45;;;;;;;24.59;76.10;101453.41;4948814;28;20874;-70
2022/09/06 07:39:31;;;;;;;11.40;8.05;;;;;;;23.94;80.35;101454.28;4964490;28;20077;-70
2022/09/06 07:41:57;;;;;;;12.85;7.85;;;;;;;24.93;75.83;101461.34;4967181;28;20141;-70
2022/09/06 07:44:23;;;;;;;11.82;7.38;;;;;;;25.02;73.87;101459.44;4967291;28;20084;-70
2022/09/06 07:46:48;;;;;;;10.93;7.43;;;;;;;25.05;73.03;101459.94;4966791;28;20042;-70
2022/09/06 07:49:13;;;;;;;9.75;7.35;;;;;;;25.50;73.23;101457.50;4966920;28;20092;-70
2022/09/06 07:51:39;;;;;;;11.13;6.95;;;;;;;24.92;72.53;101461.53;4964814;28;20034;-70
2022/09/06 07:54:05;;;;;;;15.55;6.78;;;;;;;24.56;75.39;101459.22;4966307;28;20093;-70
2022/09/06 07:56:31;;;;;;;11.18;6.22;;;;;;;24.53;73.49;101465.03;4963943;28;20094;-71
2022/09/06 07:58:56;;;;;;;11.07;6.55;;;;;;;24.47;72.15;101463.00;4968055;28;20736;-70
2022/09/06 08:01:33;;;;;;;9.02;6.22;;;;;;;24.59;74.41;101458.03;4968138;28;21037;-70
2022/09/06 08:04:16;;;;;;;9.15;6.72;;;;;;;23.92;77.13;101456.34;4950671;28;20062;-70
2022/09/06 08:06:47;;;;;;;12.70;6.32;;;;;;;24.30;74.42;101456.69;4969659;28;20050;-71
2022/09/06 08:09:13;;;;;;;12.02;6.55;;;;;;;24.71;73.00;101459.38;4968798;28;20121;-70
2022/09/06 08:11:39;;;;;;;10.98;6.68;;;;;;;24.94;75.90;101454.84;4969489;28;20034;-69
2022/09/06 08:14:06;;;;;;;9.50;7.38;;;;;;;24.62;72.28;101452.22;4970598;28;20049;-70
2022/09/06 08:16:34;;;;;;;9.60;6.07;;;;;;;24.58;73.43;101449.00;4972205;28;20089;-70
2022/09/06 08:19:02;;;;;;;13.00;6.13;;;;;;;25.10;74.93;101444.91;4972351;28;20046;-70
2022/09/06 08:21:30;;;;;;;9.93;6.35;;;;;;;25.30;77.09;101447.06;4971318;28;20045;-70
2022/09/06 08:24:09;;;;;;;15.82;7.07;;;;;;;24.78;72.01;101450.28;4971297;28;20068;-70
2022/09/06 08:26:39;;;;;;;12.30;6.63;;;;;;;24.98;72.75;101441.69;4972071;28;20030;-70
2022/09/06 08:29:06;;;;;;;10.98;7.13;;;;;;;25.30;73.13;101449.78;4954288;28;20046;-70
2022/09/06 08:31:32;;;;;;;8.43;6.55;;;;;;;24.83;71.57;101436.13;4971346;28;20073;-70
2022/09/06 08:33:59;;;;;;;8.63;6.35;;;;;;;25.42;72.55;101447.50;4971085;28;20038;-70
2022/09/06 08:36:28;;;;;;;16.33;7.53;;;;;;;25.60;71.03;101432.69;4971208;28;20049;-70
2022/09/06 08:38:54;;;;;;;10.38;7.10;;;;;;;25.55;71.10;101444.16;4971201;28;20053;-70
2022/09/06 08:41:31;;;;;;;10.82;6.82;;;;;;;24.71;71.88;101448.47;4971266;28;20771;-70
2022/09/06 08:44:02;;;;;;;8.02;6.00;;;;;;;25.04;71.95;101441.84;4964843;28;20670;-70
2022/09/06 08:46:39;;;;;;;12.00;6.82;;;;;;;24.84;71.79;101443.28;4973769;28;20042;-69
2022/09/06 08:49:05;;;;;;;9.80;6.95;;;;;;;24.79;73.14;101449.25;4964393;28;20460;-70
2022/09/06 08:51:30;;;;;;;11.15;7.20;;;;;;;25.17;73.99;101445.91;4950549;28;20031;-70
2022/09/06 08:54:24;;;;;;;10.82;7.35;;;;;;;25.11;70.90;101439.31;4968120;28;20038;-70
2022/09/06 08:57:00;;;;;;;16.25;7.40;;;;;;;24.76;71.71;101448.78;4964327;28;20396;-70
2022/09/06 08:59:27;;;;;;;8.75;6.63;;;;;;;25.13;70.18;101437.22;4970283;28;20050;-70
2022/09/06 09:02:01;;;;;;;13.88;6.57;;;;;;;25.11;71.00;101436.56;4970425;28;20036;-69
2022/09/06 09:04:29;;;;;;;13.75;8.40;;;;;;;24.91;69.99;101446.19;4966665;28;20064;-70
2022/09/06 09:07:02;;;;;;;14.50;8.60;;;;;;;25.18;73.79;101431.25;4970489;28;20038;-69
2022/09/06 09:09:31;;;;;;;15.93;6.78;;;;;;;25.09;69.53;101429.56;4969970;28;20455;-68
2022/09/06 09:11:59;;;;;;;10.23;6.45;;;;;;;25.03;67.98;101431.09;4969711;28;20045;-68
2022/09/06 09:14:29;;;;;;;10.57;6.47;;;;;;;25.69;68.00;101432.44;4969589;28;20109;-69
2022/09/06 09:17:05;;;;;;;12.30;5.90;;;;;;;25.48;67.54;101424.06;4961566;28;21021;-68
2022/09/06 09:19:35;;;;;;;11.27;5.95;;;;;;;25.17;66.72;101424.94;4970216;28;20049;-69
2022/09/06 09:22:01;;;;;;;8.73;6.35;;;;;;;24.99;66.98;101421.56;4969849;28;20092;-68
2022/09/06 09:24:26;;;;;;;11.50;5.25;;;;;;;25.10;65.58;101413.00;4970583;28;20046;-67
2022/09/06 09:27:14;;;;;;;9.57;5.18;;;;;;;25.80;64.70;101409.34;4970258;28;20124;-69
2022/09/06 09:29:54;;;;;;;11.15;4.97;;;;;;;25.87;65.19;101412.22;4972280;28;20046;-68
2022/09/06 09:32:35;;;;;;;8.35;5.22;;;;;;;25.24;66.37;101412.25;4950688;28;20847;-68
2022/09/06 09:35:22;;;;;;;12.75;5.13;;;;;;;25.41;64.52;101402.09;4951682;28;20046;-72
2022/09/06 09:37:56;;;;;;;14.65;5.05;;;;;;;25.94;64.60;101402.22;4964757;28;20474;-69
2022/09/06 09:40:24;;;;;;;6.40;4.88;;;;;;;26.02;62.72;101396.69;4950697;28;20034;-69
2022/09/06 09:42:53;;;;;;;7.78;5.45;;;;;;;26.02;63.28;101396.69;4940452;28;20050;-67
2022/09/06 09:45:19;;;;;;;7.82;5.47;;;;;;;25.79;65.04;101394.81;4929075;28;20986;-68
2022/09/06 09:47:44;;;;;;;11.80;5.78;;;;;;;26.05;64.04;101390.84;4966262;28;20030;-69
2022/09/06 09:50:31;;;;;;;6.88;4.40;;;;;;;26.39;64.16;101398.53;4918160;28;20055;-69
2022/09/06 09:53:15;;;;;;;5.45;4.22;;;;;;;26.81;63.47;101402.56;4971277;28;20038;-69
2022/09/06 09:55:41;;;;;;;7.15;5.07;;;;;;;26.68;61.28;101397.72;4962487;28;20072;-69
2022/09/06 09:58:19;;;;;;;14.18;6.28;;;;;;;26.16;63.12;101393.16;4967759;28;20419;-69
2022/09/06 10:00:44;;;;;;;10.25;5.70;;;;;;;26.22;63.24;101391.56;4926986;28;20042;-69
2022/09/06 10:03:15;;;;;;;7.25;5.07;;;;;;;26.21;61.66;101379.78;4916289;28;21187;-69
2022/09/06 10:05:53;;;;;;;13.75;5.10;;;;;;;26.68;60.04;101385.94;4967222;28;20030;-68
2022/09/06 10:08:23;;;;;;;6.60;4.07;;;;;;;26.50;60.46;101381.69;4967992;28;20042;-68
2022/09/06 10:10:49;;;;;;;10.15;4.03;;;;;;;26.49;60.55;101374.53;4969483;28;20038;-69
2022/09/06 10:13:32;;;;;;;7.78;3.72;;;;;;;26.40;60.23;101383.81;4969536;28;20026;-69
2022/09/06 10:15:59;;;;;;;5.28;2.63;;;;;;;27.15;57.57;101387.41;4964958;28;20034;-69
2022/09/06 10:18:38;;;;;;;8.60;3.10;;;;;;;27.00;60.78;101392.88;4936101;28;20046;-69
2022/09/06 10:21:06;;;;;;;9.70;3.65;;;;;;;26.83;58.83;101394.97;4965869;28;20138;-68
2022/09/06 10:23:37;;;;;;;4.90;2.70;;;;;;;26.72;57.52;101379.91;4967478;28;20064;-69
2022/09/06 10:26:17;;;;;;;11.57;3.55;;;;;;;26.86;59.34;101378.19;4964704;28;20034;-68
2022/09/06 10:28:44;;;;;;;7.20;3.40;;;;;;;26.94;56.53;101385.44;4969229;28;20401;-69
2022/09/06 10:31:28;;;;;;;6.25;3.65;;;;;;;26.93;57.87;101379.13;4967173;28;20033;-68
2022/09/06 10:34:31;;;;;;;5.13;2.30;;;;;;;27.49;58.11;101376.63;4968197;28;20129;-69
2022/09/06 10:37:17;;;;;;;4.95;2.95;;;;;;;27.36;54.42;101374.59;4974588;28;20030;-68
2022/09/06 10:39:55;;;;;;;4.53;2.38;;;;;;;27.63;59.09;101380.34;4969176;28;20046;-68
2022/09/06 10:42:37;;;;;;;6.95;2.58;;;;;;;27.69;54.08;101374.06;4907472;28;20034;-68
2022/09/06 10:45:19;;;;;;;9.45;2.85;;;;;;;27.48;55.45;101371.34;4978245;28;20046;-68
2022/09/06 10:48:13;;;;;;;6.80;2.58;;;;;;;27.77;56.20;101371.22;4960495;28;20035;-68
2022/09/06 10:51:05;;;;;;;3.13;2.63;;;;;;;27.94;55.64;101371.78;4959035;28;20052;-69
2022/09/06 10:53:33;;;;;;;7.80;3.38;;;;;;;27.55;54.93;101369.50;4966587;28;20473;-69
2022/09/06 10:56:06;;;;;;;7.82;2.85;;;;;;;27.56;57.91;101371.19;4966412;28;20113;-70
2022/09/06 10:58:44;;;;;;;4.53;2.53;;;;;;;27.25;57.09;101372.34;4961459;28;20412;-69
2022/09/06 11:01:24;;;;;;;9.88;2.83;;;;;;;27.35;54.38;101364.66;4961054;28;20089;-68
2022/09/06 11:03:50;;;;;;;6.50;2.42;;;;;;;27.74;55.59;101366.13;4961229;28;20077;-69
2022/09/06 11:06:17;;;;;;;4.25;2.83;;;;;;;27.51;53.20;101354.50;4967730;28;20065;-67
2022/09/06 11:08:52;;;;;;;5.20;2.13;;;;;;;27.67;53.88;101361.63;4966423;28;20038;-69
2022/09/06 11:12:10;;;;;;;4.72;2.30;;;;;;;28.07;54.02;101369.16;4966567;28;20102;-68
2022/09/06 11:14:38;;;;;;;6.68;2.30;;;;;;;28.27;55.24;101369.31;4901350;29;20056;-68
2022/09/06 11:17:12;;;;;;;6.55;2.40;;;;;;;27.87;55.29;101373.63;4896648;29;20056;-69
2022/09/06 11:19:49;;;;;;;5.00;2.50;;;;;;;28.32;54.70;101372.28;4893439;29;20052;-69
2022/09/06 11:22:32;;;;;;;3.63;2.20;;;;;;;28.39;53.68;101380.59;4905099;29;20075;-69
2022/09/06 11:25:27;;;;;;;3.55;2.25;;;;;;;28.31;53.13;101372.47;4903468;29;20043;-68
2022/09/06 11:27:56;;;;;;;4.40;2.33;;;;;;;27.71;52.34;101379.38;4886662;29;21104;-69
2022/09/06 11:30:24;;;;;;;5.32;2.00;;;;;;;27.93;54.09;101378.31;4900082;29;20149;-69